createdAt,value
2022-10-14T00:01:23.986Z,95585.22
2022-10-14T00:03:53.261Z,95584.81
2022-10-14T00:06:23.203Z,95577.38
2022-10-14T00:08:53.209Z,95510.56
2022-10-14T00:11:23.739Z,95560.53
2022-10-14T00:13:52.563Z,95568.75
2022-10-14T00:16:23.081Z,95576.38
2022-10-14T00:18:51.447Z,95577.88
2022-10-14T00:21:20.259Z,95576.47
2022-10-14T00:23:48.876Z,95575.28
2022-10-14T00:26:21.297Z,95564.31
2022-10-14T00:28:49.760Z,95568.78
2022-10-14T00:31:18.856Z,95568.19
2022-10-14T00:33:47.614Z,95564.00
2022-10-14T00:36:17.687Z,95564.59
2022-10-14T00:38:46.586Z,95563.00
2022-10-14T00:41:17.626Z,95564.06
2022-10-14T00:43:57.008Z,95572.66
2022-10-14T00:46:25.854Z,95542.88
2022-10-14T00:48:54.860Z,95566.66
2022-10-14T00:51:23.546Z,95579.31
2022-10-14T00:53:52.734Z,95564.97
2022-10-14T00:56:26.133Z,95571.66
2022-10-14T00:58:56.854Z,95568.25
2022-10-14T01:01:25.403Z,95567.75
2022-10-14T01:03:53.670Z,95566.06
2022-10-14T01:06:32.646Z,95561.75
2022-10-14T01:09:07.767Z,95555.19
2022-10-14T01:11:41.969Z,95554.47
2022-10-14T01:14:21.764Z,95542.88
2022-10-14T01:16:58.461Z,95547.25
2022-10-14T01:19:47.038Z,95544.97
2022-10-14T01:22:22.499Z,95544.38
2022-10-14T01:25:04.669Z,95541.75
2022-10-14T01:27:50.842Z,95525.94
2022-10-14T01:30:22.313Z,95531.72
2022-10-14T01:33:01.352Z,95528.75
2022-10-14T01:35:43.125Z,95520.53
2022-10-14T01:38:16.247Z,95523.72
2022-10-14T01:40:51.440Z,95525.19
2022-10-14T01:43:22.252Z,95527.47
2022-10-14T01:45:54.536Z,95511.63
2022-10-14T01:48:28.239Z,95509.75
2022-10-14T01:51:01.214Z,95508.75
2022-10-14T01:53:35.180Z,95502.53
2022-10-14T01:56:05.278Z,95508.66
2022-10-14T01:58:36.007Z,95495.03
2022-10-14T02:01:06.277Z,95500.00
2022-10-14T02:03:42.982Z,95510.22
2022-10-14T02:06:16.676Z,95496.22
2022-10-14T02:09:07.468Z,95495.75
2022-10-14T02:11:43.719Z,95487.72
2022-10-14T02:14:22.317Z,95479.53
2022-10-14T02:17:01.368Z,95478.78
2022-10-14T02:19:35.510Z,95483.91
2022-10-14T02:22:09.705Z,95487.41
2022-10-14T02:24:41.843Z,95484.09
2022-10-14T02:27:13.412Z,95491.59
2022-10-14T02:29:44.016Z,95491.19
2022-10-14T02:32:16.570Z,95486.16
2022-10-14T02:34:48.711Z,95486.19
2022-10-14T02:37:18.339Z,95476.88
2022-10-14T02:39:56.065Z,95475.34
2022-10-14T02:42:24.404Z,95477.34
2022-10-14T02:44:56.586Z,95478.50
2022-10-14T02:47:27.171Z,95479.09
2022-10-14T02:49:55.820Z,95480.53
2022-10-14T02:52:24.233Z,95482.38
2022-10-14T02:54:52.641Z,95483.06
2022-10-14T02:57:20.878Z,95471.72
2022-10-14T02:59:49.165Z,95473.50
2022-10-14T03:02:17.480Z,95477.38
2022-10-14T03:04:47.112Z,95433.53
2022-10-14T03:07:15.341Z,95472.59
2022-10-14T03:09:43.648Z,95470.13
2022-10-14T03:12:11.897Z,95475.25
2022-10-14T03:14:40.229Z,95467.41
2022-10-14T03:17:08.448Z,95466.47
2022-10-14T03:19:37.044Z,95467.72
2022-10-14T03:22:06.723Z,95460.31
2022-10-14T03:24:34.952Z,95464.69
2022-10-14T03:27:03.236Z,95456.31
2022-10-14T03:29:31.511Z,95451.38
2022-10-14T03:31:59.737Z,95456.56
2022-10-14T03:34:28.069Z,95459.03
2022-10-14T03:36:56.330Z,95454.28
2022-10-14T03:39:26.149Z,95434.56
2022-10-14T03:41:54.391Z,95458.94
2022-10-14T03:44:22.822Z,95460.78
2022-10-14T03:46:51.116Z,95461.19
2022-10-14T03:49:19.329Z,95453.03
2022-10-14T03:51:47.635Z,95456.97
2022-10-14T03:54:15.899Z,95457.28
2022-10-14T03:56:45.556Z,95455.22
2022-10-14T03:59:13.824Z,95458.78
2022-10-14T04:01:42.110Z,95463.63
2022-10-14T04:04:10.525Z,95460.94
2022-10-14T04:06:38.990Z,95453.34
2022-10-14T04:09:07.439Z,95454.00
2022-10-14T04:11:35.702Z,95453.28
2022-10-14T04:14:05.372Z,95450.22
2022-10-14T04:16:33.730Z,95450.53
2022-10-14T04:19:02.013Z,95447.84
2022-10-14T04:21:30.349Z,95445.78
2022-10-14T04:23:58.610Z,95445.19
2022-10-14T04:26:26.957Z,95418.63
2022-10-14T04:28:55.981Z,95441.28
2022-10-14T04:31:25.696Z,95446.06
2022-10-14T04:33:53.958Z,95441.06
2022-10-14T04:36:22.554Z,95435.19
2022-10-14T04:38:50.970Z,95432.06
2022-10-14T04:41:19.216Z,95436.19
2022-10-14T04:43:47.469Z,95437.91
2022-10-14T04:46:15.749Z,95445.72
2022-10-14T04:48:45.474Z,95431.63
2022-10-14T04:51:13.697Z,95449.31
2022-10-14T04:53:41.908Z,95449.78
2022-10-14T04:56:10.216Z,95442.50
2022-10-14T04:58:38.448Z,95444.19
2022-10-14T05:01:06.803Z,95439.53
2022-10-14T05:03:35.048Z,95440.44
2022-10-14T05:06:04.982Z,95435.94
2022-10-14T05:08:33.377Z,95437.47
2022-10-14T05:11:02.887Z,95440.13
2022-10-14T05:13:31.502Z,95438.38
2022-10-14T05:15:59.928Z,95441.84
2022-10-14T05:18:28.244Z,95433.22
2022-10-14T05:20:58.805Z,95408.41
2022-10-14T05:23:28.914Z,95444.47
2022-10-14T05:25:57.248Z,95416.50
2022-10-14T05:28:25.591Z,95448.19
2022-10-14T05:30:53.862Z,95474.06
2022-10-14T05:33:22.207Z,95439.13
2022-10-14T05:35:59.458Z,95433.53
2022-10-14T05:38:32.260Z,95442.59
2022-10-14T05:41:01.066Z,95440.84
2022-10-14T05:43:32.429Z,95380.06
2022-10-14T05:46:01.466Z,95405.81
2022-10-14T05:48:29.733Z,95446.59
2022-10-14T05:51:01.690Z,95442.47
2022-10-14T05:53:48.932Z,95450.31
2022-10-14T05:56:17.195Z,95455.13
2022-10-14T05:58:45.465Z,95435.72
2022-10-14T06:01:13.790Z,95446.34
2022-10-14T06:03:42.257Z,95420.41
2022-10-14T06:06:14.186Z,95444.53
2022-10-14T06:08:45.131Z,95451.81
2022-10-14T06:11:13.997Z,95378.59
2022-10-14T06:13:42.626Z,95467.44
2022-10-14T06:16:11.744Z,95468.59
2022-10-14T06:18:40.246Z,95474.22
2022-10-14T06:21:08.961Z,95469.56
2022-10-14T06:23:37.160Z,95470.16
2022-10-14T06:26:09.812Z,95465.81
2022-10-14T06:28:38.974Z,95465.53
2022-10-14T06:31:07.747Z,95473.31
2022-10-14T06:33:36.127Z,95476.13
2022-10-14T06:36:05.705Z,95463.09
2022-10-14T06:38:34.240Z,95447.34
2022-10-14T06:41:02.478Z,95470.16
2022-10-14T06:43:32.265Z,95476.69
2022-10-14T06:46:00.540Z,95469.38
2022-10-14T06:48:28.869Z,95483.16
2022-10-14T06:50:59.492Z,95482.44
2022-10-14T06:53:27.840Z,95481.97
2022-10-14T06:56:00.883Z,95478.78
2022-10-14T06:58:29.755Z,95464.00
2022-10-14T07:01:02.921Z,95480.25
2022-10-14T07:03:31.236Z,95493.38
2022-10-14T07:06:04.352Z,95490.28
2022-10-14T07:08:32.650Z,95500.88
2022-10-14T07:11:01.562Z,95491.78
2022-10-14T07:13:29.959Z,95494.59
2022-10-14T07:15:59.644Z,95478.66
2022-10-14T07:18:28.118Z,95498.78
2022-10-14T07:20:56.526Z,95462.41
2022-10-14T07:23:24.777Z,95493.38
2022-10-14T07:25:53.003Z,95504.03
2022-10-14T07:28:21.273Z,95503.31
2022-10-14T07:30:59.828Z,95499.63
2022-10-14T07:33:28.219Z,95496.00
2022-10-14T07:35:56.635Z,95480.47
2022-10-14T07:38:24.883Z,95501.81
2022-10-14T07:41:00.810Z,95504.91
2022-10-14T07:43:29.525Z,95497.88
2022-10-14T07:46:02.755Z,95504.44
2022-10-14T07:48:44.999Z,95504.00
2022-10-14T07:51:21.238Z,95478.06
2022-10-14T07:53:50.301Z,95507.78
2022-10-14T07:56:18.550Z,95501.91
2022-10-14T07:58:47.134Z,95479.81
2022-10-14T08:01:18.932Z,95499.84
2022-10-14T08:03:49.306Z,95505.34
2022-10-14T08:06:18.033Z,95497.31
2022-10-14T08:08:46.632Z,95490.56
2022-10-14T08:11:17.049Z,95501.44
2022-10-14T08:13:46.454Z,95507.38
2022-10-14T08:16:19.081Z,95502.03
2022-10-14T08:18:48.912Z,95487.63
2022-10-14T08:21:18.834Z,95501.06
2022-10-14T08:23:47.239Z,95505.78
2022-10-14T08:26:22.946Z,95512.44
2022-10-14T08:28:52.334Z,95513.69
2022-10-14T08:31:22.791Z,95465.88
2022-10-14T08:33:51.462Z,95523.44
2022-10-14T08:36:20.801Z,95518.25
2022-10-14T08:38:49.850Z,95522.69
2022-10-14T08:41:35.022Z,95526.19
2022-10-14T08:44:14.485Z,95526.84
2022-10-14T08:46:51.108Z,95445.13
2022-10-14T08:49:27.261Z,95537.34
2022-10-14T08:52:01.187Z,95537.97
2022-10-14T08:54:38.865Z,95484.25
2022-10-14T08:57:13.926Z,95521.41
2022-10-14T08:59:43.454Z,95542.53
2022-10-14T09:02:25.731Z,95548.13
2022-10-14T09:04:53.968Z,95551.47
2022-10-14T09:07:22.969Z,95543.34
2022-10-14T09:09:54.493Z,95549.91
2022-10-14T09:12:26.959Z,95550.47
2022-10-14T09:15:04.861Z,95537.28
2022-10-14T09:17:38.394Z,95556.09
2022-10-14T09:20:18.084Z,95557.50
2022-10-14T09:22:47.466Z,95552.97
2022-10-14T09:25:18.052Z,95558.59
2022-10-14T09:30:20.398Z,95550.78
2022-10-14T09:32:53.281Z,95546.03
2022-10-14T09:35:26.208Z,95540.28
2022-10-14T09:37:54.988Z,95546.19
2022-10-14T09:40:30.101Z,95539.16
2022-10-14T09:43:03.335Z,95559.06
2022-10-14T09:45:48.275Z,95557.47
2022-10-14T09:48:21.990Z,95561.53
2022-10-14T09:50:53.062Z,95567.03
2022-10-14T09:53:28.645Z,95564.09
2022-10-14T09:55:59.849Z,95549.31
2022-10-14T09:58:34.880Z,95557.53
2022-10-14T10:01:04.076Z,95559.84
2022-10-14T10:03:35.705Z,95554.00
2022-10-14T10:06:07.443Z,95516.81
2022-10-14T10:08:37.343Z,95559.16
2022-10-14T10:11:09.857Z,95560.53
2022-10-14T10:13:45.098Z,95558.19
2022-10-14T10:16:22.873Z,95565.50
2022-10-14T10:18:55.349Z,95565.38
2022-10-14T10:21:25.994Z,95560.41
2022-10-14T10:23:58.020Z,95554.59
2022-10-14T10:26:29.587Z,95562.78
2022-10-14T10:29:00.088Z,95557.25
2022-10-14T10:31:57.018Z,95554.06
2022-10-14T10:35:03.495Z,95548.78
2022-10-14T10:37:34.249Z,95544.75
2022-10-14T10:40:22.599Z,95484.00
2022-10-14T10:43:04.518Z,95534.53
2022-10-14T10:45:41.787Z,95549.38
2022-10-14T10:48:18.600Z,95539.91
2022-10-14T10:50:57.810Z,95540.91
2022-10-14T10:53:41.816Z,95545.66
2022-10-14T10:56:21.709Z,95536.06
2022-10-14T10:59:03.353Z,95534.03
2022-10-14T11:01:40.467Z,95530.81
2022-10-14T11:04:27.545Z,95526.84
2022-10-14T11:07:28.172Z,95532.81
2022-10-14T11:10:21.643Z,95533.53
2022-10-14T11:13:01.063Z,95511.41
2022-10-14T11:15:42.857Z,95523.38
2022-10-14T11:18:15.824Z,95526.56
2022-10-14T11:20:58.706Z,95496.28
2022-10-14T11:23:43.888Z,95512.31
2022-10-14T11:26:27.104Z,95515.91
2022-10-14T11:29:06.229Z,95513.59
2022-10-14T11:31:40.601Z,95432.00
2022-10-14T11:34:29.645Z,95506.28
2022-10-14T11:37:08.393Z,95480.19
2022-10-14T11:39:48.870Z,95489.47
2022-10-14T11:42:28.066Z,95403.69
2022-10-14T11:45:09.005Z,95493.34
2022-10-14T11:47:41.832Z,95491.91
2022-10-14T11:50:18.387Z,95444.31
2022-10-14T11:52:54.146Z,95488.56
2022-10-14T11:55:25.297Z,95489.25
2022-10-14T11:57:58.285Z,95481.25
2022-10-14T12:00:47.041Z,95484.25
2022-10-14T12:03:23.548Z,95250.28
2022-10-14T12:05:59.750Z,95429.28
2022-10-14T12:08:35.734Z,95453.06
2022-10-14T12:11:10.481Z,95481.94
2022-10-14T12:13:44.579Z,95454.75
2022-10-14T12:16:17.186Z,95466.94
2022-10-14T12:18:48.193Z,95485.94
2022-10-14T12:21:22.850Z,95491.75
2022-10-14T12:23:56.776Z,95482.28
2022-10-14T12:26:47.538Z,95492.28
2022-10-14T12:29:18.304Z,95485.03
2022-10-14T12:31:51.260Z,95415.78
2022-10-14T12:34:34.868Z,95486.09
2022-10-14T12:37:50.517Z,95465.81
2022-10-14T12:40:32.150Z,95481.59
2022-10-14T12:43:14.793Z,95487.56
2022-10-14T12:45:52.216Z,95492.69
2022-10-14T12:48:23.513Z,95493.09
2022-10-14T12:51:09.068Z,95440.13
2022-10-14T12:53:39.450Z,95485.88
2022-10-14T12:56:08.329Z,95464.31
2022-10-14T12:58:42.539Z,95488.03
2022-10-14T13:01:18.718Z,95489.66
2022-10-14T13:04:07.302Z,95470.44
2022-10-14T13:06:42.442Z,95493.34
2022-10-14T13:09:35.350Z,95482.91
2022-10-14T13:12:42.189Z,95487.16
2022-10-14T13:15:38.761Z,95484.59
2022-10-14T13:18:35.871Z,95477.00
2022-10-14T13:21:05.289Z,95476.47
2022-10-14T13:23:39.432Z,95483.53
2022-10-14T13:26:23.438Z,95484.66
2022-10-14T13:29:09.493Z,95225.56
2022-10-14T13:31:47.894Z,95435.94
2022-10-14T13:34:48.543Z,95447.88
2022-10-14T13:37:33.461Z,95474.75
2022-10-14T13:40:18.738Z,95469.69
2022-10-14T13:42:53.485Z,95463.13
2022-10-14T13:45:25.259Z,95465.09
2022-10-14T13:47:55.587Z,95464.16
2022-10-14T13:50:29.101Z,95437.19
2022-10-14T13:53:00.119Z,95465.00
2022-10-14T13:55:30.328Z,95438.84
2022-10-14T13:58:13.529Z,95401.16
2022-10-14T14:00:47.072Z,95458.94
2022-10-14T14:03:24.723Z,95436.22
2022-10-14T14:05:53.655Z,95461.94
2022-10-14T14:08:42.386Z,95379.13
2022-10-14T14:11:19.426Z,95441.78
2022-10-14T14:14:00.402Z,95458.75
2022-10-14T14:16:33.184Z,95467.50
2022-10-14T14:19:08.927Z,95465.31
2022-10-14T14:21:37.711Z,95382.66
2022-10-14T14:24:16.748Z,95441.16
2022-10-14T14:26:45.820Z,95440.84
2022-10-14T14:29:19.071Z,95458.06
2022-10-14T14:32:05.569Z,95429.03
2022-10-14T14:34:38.370Z,95459.81
2022-10-14T14:40:00.223Z,95461.34
2022-10-14T14:42:32.486Z,95463.22
2022-10-14T14:45:06.837Z,95449.53
2022-10-14T14:47:35.456Z,95460.63
2022-10-14T14:50:29.120Z,95470.25
2022-10-14T14:55:41.017Z,95467.03
2022-10-14T14:58:22.885Z,95472.88
2022-10-14T15:00:51.856Z,95467.44
2022-10-14T15:03:20.148Z,95479.28
2022-10-14T15:05:57.348Z,95471.47
2022-10-14T15:08:28.136Z,95471.53
2022-10-14T15:10:59.104Z,95473.81
2022-10-14T15:13:31.961Z,95471.56
2022-10-14T15:16:00.837Z,95470.09
2022-10-14T15:18:30.648Z,95477.56
2022-10-14T15:21:15.841Z,95464.50
2022-10-14T15:24:03.301Z,95468.56
2022-10-14T15:26:34.815Z,95479.78
2022-10-14T15:29:14.728Z,95488.38
2022-10-14T15:31:45.113Z,95480.78
2022-10-14T15:34:20.031Z,95393.25
2022-10-14T15:36:51.631Z,95486.94
2022-10-14T15:39:20.163Z,95456.09
2022-10-14T15:41:48.366Z,95483.59
2022-10-14T15:44:16.818Z,95368.56
2022-10-14T15:47:04.022Z,95470.91
2022-10-14T15:49:34.461Z,95472.63
2022-10-14T15:52:04.638Z,95415.63
2022-10-14T15:54:32.974Z,95440.88
2022-10-14T15:57:01.168Z,95310.63
2022-10-14T15:59:29.392Z,95476.69
2022-10-14T16:01:59.077Z,95473.81
2022-10-14T16:04:28.086Z,95469.69
2022-10-14T16:06:58.019Z,95465.53
2022-10-14T16:09:29.156Z,95468.75
2022-10-14T16:12:00.088Z,95462.13
2022-10-14T16:14:28.824Z,95457.19
2022-10-14T16:16:57.747Z,95445.75
2022-10-14T16:19:25.929Z,95457.69
2022-10-14T16:21:54.089Z,95453.94
2022-10-14T16:24:25.735Z,95463.69
2022-10-14T16:26:55.879Z,95458.25
2022-10-14T16:29:24.103Z,95473.28
2022-10-14T16:31:52.640Z,95446.25
2022-10-14T16:34:22.629Z,95472.41
2022-10-14T16:36:51.950Z,95471.94
2022-10-14T16:39:21.331Z,95462.53
2022-10-14T16:41:49.818Z,95473.34
2022-10-14T16:44:28.429Z,95478.31
2022-10-14T16:47:15.567Z,95475.69
2022-10-14T16:49:45.246Z,95481.88
2022-10-14T16:52:13.632Z,95478.25
2022-10-14T16:54:41.857Z,95487.84
2022-10-14T16:57:10.147Z,95483.09
2022-10-14T16:59:39.896Z,95494.38
2022-10-14T17:02:11.251Z,95482.59
2022-10-14T17:04:39.500Z,95493.69
2022-10-14T17:07:09.033Z,95491.88
2022-10-14T17:09:39.514Z,95489.09
2022-10-14T17:12:13.022Z,95493.56
2022-10-14T17:14:44.175Z,95496.53
2022-10-14T17:17:12.575Z,95499.16
2022-10-14T17:19:40.756Z,95498.66
2022-10-14T17:22:08.987Z,95496.41
2022-10-14T17:24:37.217Z,95497.59
2022-10-14T17:27:06.054Z,95490.78
2022-10-14T17:29:34.332Z,95502.91
2022-10-14T17:32:04.226Z,95494.59
2022-10-14T17:34:33.352Z,95471.53
2022-10-14T17:37:03.292Z,95480.59
2022-10-14T17:39:31.586Z,95496.25
2022-10-14T17:41:59.965Z,95468.84
2022-10-14T17:44:29.072Z,95493.22
2022-10-14T17:46:59.107Z,95484.75
2022-10-14T17:49:31.409Z,95480.44
2022-10-14T17:52:02.393Z,95482.38
2022-10-14T17:54:31.198Z,95228.97
2022-10-14T17:56:59.947Z,95460.28
2022-10-14T17:59:28.470Z,95479.94
2022-10-14T18:02:02.588Z,95281.72
2022-10-14T18:04:33.665Z,95449.19
2022-10-14T18:07:02.120Z,95460.63
2022-10-14T18:09:30.901Z,95475.00
2022-10-14T18:12:14.756Z,95468.44
2022-10-14T18:14:44.020Z,95469.31
2022-10-14T18:17:13.234Z,95473.22
2022-10-14T18:19:47.134Z,95468.69
2022-10-14T18:22:18.559Z,95461.84
2022-10-14T18:24:46.962Z,95471.41
2022-10-14T18:27:16.846Z,95458.81
2022-10-14T18:29:45.592Z,95458.25
2022-10-14T18:32:14.143Z,95448.00
2022-10-14T18:34:43.841Z,95453.47
2022-10-14T18:37:12.633Z,95450.38
2022-10-14T18:39:41.023Z,95444.97
2022-10-14T18:42:09.603Z,95454.31
2022-10-14T18:44:38.328Z,95448.00
2022-10-14T18:47:07.073Z,95457.41
2022-10-14T18:49:39.883Z,95457.34
2022-10-14T18:52:10.875Z,95450.75
2022-10-14T18:54:39.393Z,95449.66
2022-10-14T18:57:07.847Z,95457.94
2022-10-14T18:59:36.371Z,95287.75
2022-10-14T19:02:04.809Z,95458.66
2022-10-14T19:04:39.512Z,95462.41
2022-10-14T19:07:08.715Z,95425.53
2022-10-14T19:09:38.847Z,95460.06
2022-10-14T19:12:28.036Z,95459.00
2022-10-14T19:14:56.735Z,95460.94
2022-10-14T19:17:25.094Z,95466.19
2022-10-14T19:19:53.579Z,95464.56
2022-10-14T19:22:22.202Z,95423.72
2022-10-14T19:24:51.949Z,95473.88
2022-10-14T19:27:20.718Z,95441.97
2022-10-14T19:29:49.201Z,95463.88
2022-10-14T19:32:17.727Z,95476.56
2022-10-14T19:34:47.458Z,95440.16
2022-10-14T19:37:15.985Z,95470.13
2022-10-14T19:39:44.249Z,95467.53
2022-10-14T19:42:13.983Z,95480.94
2022-10-14T19:44:42.245Z,95473.97
2022-10-14T19:47:10.650Z,95481.22
2022-10-14T19:49:39.511Z,95484.84
2022-10-14T19:52:11.182Z,95488.97
2022-10-14T19:54:39.698Z,95454.34
2022-10-14T19:57:10.797Z,95488.19
2022-10-14T19:59:40.518Z,95482.22
2022-10-14T20:02:10.029Z,95481.22
2022-10-14T20:04:38.405Z,95457.19
2022-10-14T20:07:06.658Z,95481.72
2022-10-14T20:09:40.309Z,95487.34
2022-10-14T20:12:08.572Z,95479.97
2022-10-14T20:14:37.627Z,95479.56
2022-10-14T20:17:07.385Z,95461.50
2022-10-14T20:19:56.030Z,95488.69
2022-10-14T20:22:24.945Z,95484.16
2022-10-14T20:24:53.953Z,95483.91
2022-10-14T20:27:23.059Z,95470.78
2022-10-14T20:29:52.073Z,95493.94
2022-10-14T20:32:22.085Z,95489.78
2022-10-14T20:34:51.260Z,95487.09
2022-10-14T20:37:24.270Z,95456.53
2022-10-14T20:39:56.088Z,95486.03
2022-10-14T20:42:24.483Z,95470.59
2022-10-14T20:44:52.736Z,95478.53
2022-10-14T20:47:22.601Z,95472.16
2022-10-14T20:49:51.029Z,95463.81
2022-10-14T20:52:19.276Z,95476.81
2022-10-14T20:54:47.577Z,95474.03
2022-10-14T20:57:15.897Z,95469.25
2022-10-14T20:59:44.135Z,95470.22
2022-10-14T21:02:17.117Z,95455.72
2022-10-14T21:04:48.065Z,95449.53
2022-10-14T21:07:16.557Z,95411.44
2022-10-14T21:09:45.076Z,95458.06
2022-10-14T21:12:13.431Z,95457.25
2022-10-14T21:14:41.660Z,95445.81
2022-10-14T21:17:10.295Z,95439.13
2022-10-14T21:19:38.533Z,95446.84
2022-10-14T21:22:10.008Z,95451.81
2022-10-14T21:24:41.275Z,95448.41
2022-10-14T21:27:09.551Z,95377.13
2022-10-14T21:29:37.780Z,95436.91
2022-10-14T21:32:06.639Z,95380.03
2022-10-14T21:34:34.977Z,95450.22
2022-10-14T21:37:03.293Z,95437.19
2022-10-14T21:39:33.694Z,95444.50
2022-10-14T21:42:01.932Z,95357.41
2022-10-14T21:44:30.269Z,95437.03
2022-10-14T21:46:58.500Z,95431.38
2022-10-14T21:49:26.829Z,95425.78
2022-10-14T21:51:55.078Z,95438.63
2022-10-14T21:54:24.841Z,95448.03
2022-10-14T21:59:27.785Z,95432.44
2022-10-14T22:01:59.025Z,95434.16
2022-10-14T22:04:27.831Z,95424.00
2022-10-14T22:06:56.093Z,95441.41
2022-10-14T22:09:24.346Z,95433.56
2022-10-14T22:11:55.140Z,95426.69
2022-10-14T22:14:23.384Z,95412.78
2022-10-14T22:16:51.623Z,95433.63
2022-10-14T22:19:19.928Z,95380.78
2022-10-14T22:21:48.238Z,95434.88
2022-10-14T22:24:16.479Z,95427.97
2022-10-14T22:26:44.834Z,95431.41
2022-10-14T22:29:16.464Z,95434.13
2022-10-14T22:31:45.012Z,95434.81
2022-10-14T22:34:14.924Z,95434.13
2022-10-14T22:36:43.226Z,95427.31
2022-10-14T22:39:14.717Z,95433.94
2022-10-14T22:41:43.410Z,95438.81
2022-10-14T22:44:11.753Z,95439.22
2022-10-14T22:46:41.795Z,95433.31
2022-10-14T22:49:10.490Z,95428.59
2022-10-14T22:51:41.474Z,95436.91
2022-10-14T22:54:10.219Z,95439.28
2022-10-14T22:56:39.620Z,95396.06
2022-10-14T22:59:09.911Z,95442.53
2022-10-14T23:01:38.752Z,95445.59
2022-10-14T23:04:09.106Z,95474.84
2022-10-14T23:06:37.420Z,95368.53
2022-10-14T23:09:05.865Z,95450.22
2022-10-14T23:11:34.160Z,95441.44
2022-10-14T23:14:06.170Z,95452.16
2022-10-14T23:16:35.865Z,95449.31
2022-10-14T23:19:04.518Z,95412.66
2022-10-14T23:21:36.260Z,95442.56
2022-10-14T23:24:07.458Z,95392.03
2022-10-14T23:26:36.909Z,95454.25
2022-10-14T23:29:07.487Z,95424.06
2022-10-14T23:31:37.333Z,95451.19
2022-10-14T23:34:08.017Z,95442.69
2022-10-14T23:36:38.079Z,95400.56
2022-10-14T23:39:08.400Z,95454.03
2022-10-14T23:41:36.832Z,95455.53
2022-10-14T23:44:05.115Z,95459.13
2022-10-14T23:46:33.393Z,95455.53
2022-10-14T23:49:07.593Z,95464.31
2022-10-14T23:51:44.251Z,95465.41
2022-10-14T23:54:12.511Z,95430.53
2022-10-14T23:56:40.766Z,95461.91
2022-10-14T23:59:09.092Z,95460.56
